Time;durP1;ratioP1;P1;durP2;ratioP2;P2;SDS_P1;SDS_P2;PMS_P1;PMS_P2;Temp;Humidity;BMP_temperature;BMP_pressure;BME280_temperature;BME280_humidity;BME280_pressure;Samples;Min_cycle;Max_cycle;Signal;HPM_P1;HPM_P2
2023/03/23 00:00:50;;;;;;;30.43;21.50;;;;;;;;;;4410246;32;319593;-87
2023/03/23 00:03:18;;;;;;;36.97;22.27;;;;;;;;;;4420678;32;319142;-87
2023/03/23 00:05:49;;;;;;;30.43;20.20;;;;;;;;;;4421355;32;318746;-87
2023/03/23 00:08:17;;;;;;;35.67;21.43;;;;;;;;;;4406901;32;418206;-88
2023/03/23 00:10:45;;;;;;;34.87;23.30;;;;;;;;;;4419993;32;318557;-89
2023/03/23 00:13:12;;;;;;;33.00;22.23;;;;;;;;;;4409804;32;319316;-87
2023/03/23 00:15:41;;;;;;;31.27;23.10;;;;;;;;;;4420971;32;318716;-87
2023/03/23 00:18:08;;;;;;;39.33;23.73;;;;;;;;;;4410337;32;319189;-88
2023/03/23 00:20:40;;;;;;;36.50;25.17;;;;;;;;;;4420504;32;319183;-88
2023/03/23 00:23:07;;;;;;;51.87;30.77;;;;;;;;;;4411180;32;319096;-87
2023/03/23 00:25:34;;;;;;;46.10;28.30;;;;;;;;;;4421069;32;319565;-88
2023/03/23 00:28:02;;;;;;;40.67;27.70;;;;;;;;;;4410763;32;318762;-88
2023/03/23 00:30:29;;;;;;;51.27;31.43;;;;;;;;;;4420545;32;319355;-88
2023/03/23 00:32:57;;;;;;;43.80;27.13;;;;;;;;;;4411161;32;319897;-88
2023/03/23 00:35:25;;;;;;;37.13;22.47;;;;;;;;;;4420587;32;319266;-88
2023/03/23 00:37:51;;;;;;;30.10;18.83;;;;;;;;;;4408040;32;318774;-88
2023/03/23 00:40:18;;;;;;;28.23;18.87;;;;;;;;;;4420461;32;319293;-88
2023/03/23 00:42:45;;;;;;;24.37;17.27;;;;;;;;;;4420425;32;319429;-88
2023/03/23 00:45:14;;;;;;;25.40;17.33;;;;;;;;;;4410622;32;319532;-88
2023/03/23 00:47:46;;;;;;;27.07;17.70;;;;;;;;;;4420101;32;319510;-88
2023/03/23 00:50:14;;;;;;;44.47;23.30;;;;;;;;;;4407688;32;416698;-88
2023/03/23 00:52:41;;;;;;;39.53;24.10;;;;;;;;;;4420766;32;319279;-88
2023/03/23 00:55:08;;;;;;;42.23;25.50;;;;;;;;;;4409972;32;319388;-88
2023/03/23 00:57:35;;;;;;;38.77;26.27;;;;;;;;;;4420224;32;318491;-88
2023/03/23 01:00:03;;;;;;;41.53;25.43;;;;;;;;;;4410300;32;319569;-87
2023/03/23 01:02:31;;;;;;;54.73;29.13;;;;;;;;;;4419724;32;319428;-88
2023/03/23 01:04:58;;;;;;;36.00;25.50;;;;;;;;;;4410816;32;319392;-87
2023/03/23 01:07:27;;;;;;;42.80;26.23;;;;;;;;;;4420306;32;320093;-88
2023/03/23 01:09:54;;;;;;;44.60;27.73;;;;;;;;;;4410037;32;319415;-87
2023/03/23 01:12:24;;;;;;;45.00;27.23;;;;;;;;;;4419903;32;319438;-88
2023/03/23 01:14:50;;;;;;;46.87;27.90;;;;;;;;;;4408018;32;393168;-87
2023/03/23 01:17:18;;;;;;;40.20;26.87;;;;;;;;;;4419324;32;343099;-88
2023/03/23 01:19:46;;;;;;;39.53;25.03;;;;;;;;;;4419988;32;319560;-88
2023/03/23 01:22:13;;;;;;;43.73;27.40;;;;;;;;;;4410053;32;319504;-88
2023/03/23 01:24:40;;;;;;;44.07;26.87;;;;;;;;;;4419638;32;319203;-88
2023/03/23 01:27:07;;;;;;;40.80;27.43;;;;;;;;;;4409615;32;319683;-88
2023/03/23 01:29:34;;;;;;;36.97;25.33;;;;;;;;;;4418858;32;319313;-88
2023/03/23 01:32:01;;;;;;;41.10;26.10;;;;;;;;;;4408581;32;319425;-87
2023/03/23 01:34:28;;;;;;;39.97;25.37;;;;;;;;;;4419810;32;318517;-88
2023/03/23 01:36:57;;;;;;;39.17;25.10;;;;;;;;;;4409058;32;318721;-88
2023/03/23 01:39:23;;;;;;;37.67;24.17;;;;;;;;;;4419428;32;318931;-88
2023/03/23 01:41:50;;;;;;;40.10;24.27;;;;;;;;;;4409982;32;337919;-88
2023/03/23 01:44:55;;;;;;;35.90;23.83;;;;;;;;;;4420690;32;320014;-88
2023/03/23 01:47:26;;;;;;;38.87;25.53;;;;;;;;;;4406848;32;419305;-88
2023/03/23 01:49:53;;;;;;;36.63;25.80;;;;;;;;;;4408671;32;319461;-87
2023/03/23 01:52:26;;;;;;;42.63;26.83;;;;;;;;;;4420116;32;318642;-89
2023/03/23 01:54:56;;;;;;;36.33;23.93;;;;;;;;;;4408675;32;319516;-87
2023/03/23 01:57:26;;;;;;;37.90;25.47;;;;;;;;;;4418284;32;319406;-88
2023/03/23 01:59:55;;;;;;;39.97;28.63;;;;;;;;;;4409635;32;319262;-87
2023/03/23 02:02:23;;;;;;;34.47;24.27;;;;;;;;;;4418321;32;319779;-88
2023/03/23 02:04:51;;;;;;;43.33;22.57;;;;;;;;;;4409138;32;319667;-87
2023/03/23 02:07:21;;;;;;;29.27;20.13;;;;;;;;;;4417587;32;320308;-87
2023/03/23 02:09:51;;;;;;;36.87;20.77;;;;;;;;;;4419187;32;319381;-87
2023/03/23 02:12:17;;;;;;;45.67;24.37;;;;;;;;;;4405864;32;417930;-88
2023/03/23 02:14:44;;;;;;;46.03;26.93;;;;;;;;;;4419208;32;319399;-88
2023/03/23 02:17:18;;;;;;;40.17;24.87;;;;;;;;;;4409054;32;318746;-87
2023/03/23 02:20:10;;;;;;;40.57;24.93;;;;;;;;;;4419749;32;319431;-87
2023/03/23 02:23:07;;;;;;;48.77;26.10;;;;;;;;;;4406887;32;419880;-87
2023/03/23 02:25:55;;;;;;;51.20;25.93;;;;;;;;;;4404279;32;419488;-88
2023/03/23 02:28:39;;;;;;;45.57;24.97;;;;;;;;;;4405183;32;419190;-88
2023/03/23 02:31:22;;;;;;;45.93;25.20;;;;;;;;;;4409510;32;319399;-88
2023/03/23 02:33:52;;;;;;;44.60;25.17;;;;;;;;;;4407752;32;367945;-88
2023/03/23 02:36:24;;;;;;;48.37;26.77;;;;;;;;;;4419412;32;319413;-88
2023/03/23 02:38:58;;;;;;;47.60;25.87;;;;;;;;;;4408215;32;319468;-88
2023/03/23 02:41:31;;;;;;;53.53;27.13;;;;;;;;;;4419115;32;319395;-88
2023/03/23 02:43:59;;;;;;;44.83;26.77;;;;;;;;;;4409448;32;319772;-87
2023/03/23 02:46:28;;;;;;;42.90;25.10;;;;;;;;;;4417773;32;319438;-87
2023/03/23 02:48:58;;;;;;;41.77;25.77;;;;;;;;;;4409210;32;319668;-87
2023/03/23 02:51:25;;;;;;;45.43;26.10;;;;;;;;;;4418626;32;318700;-87
2023/03/23 02:53:54;;;;;;;40.37;25.73;;;;;;;;;;4409600;32;319329;-87
2023/03/23 02:56:27;;;;;;;40.77;25.27;;;;;;;;;;4417926;32;319450;-87
2023/03/23 02:58:54;;;;;;;41.93;26.20;;;;;;;;;;4409245;32;318728;-88
2023/03/23 03:01:58;;;;;;;44.70;26.33;;;;;;;;;;4419272;32;319281;-87
2023/03/23 03:04:29;;;;;;;45.97;29.20;;;;;;;;;;4407977;32;419332;-88
2023/03/23 03:07:28;;;;;;;48.20;27.87;;;;;;;;;;4412226;32;319948;-88
2023/03/23 03:09:59;;;;;;;41.07;25.73;;;;;;;;;;4404822;32;318634;-87
2023/03/23 03:12:43;;;;;;;41.23;25.07;;;;;;;;;;4421621;32;319047;-88
2023/03/23 03:15:22;;;;;;;40.17;24.90;;;;;;;;;;4411047;32;319400;-88
2023/03/23 03:17:56;;;;;;;39.90;24.63;;;;;;;;;;4410686;32;319457;-88
2023/03/23 03:20:27;;;;;;;46.90;29.70;;;;;;;;;;4421946;32;319385;-87
2023/03/23 03:22:56;;;;;;;63.10;32.50;;;;;;;;;;4411288;32;318716;-87
2023/03/23 03:25:24;;;;;;;51.70;29.40;;;;;;;;;;4421321;32;319413;-88
2023/03/23 03:27:52;;;;;;;44.93;28.10;;;;;;;;;;4409659;32;402903;-87
2023/03/23 03:30:23;;;;;;;57.40;31.00;;;;;;;;;;4422593;32;319602;-87
2023/03/23 03:32:54;;;;;;;50.00;30.17;;;;;;;;;;4410578;32;318469;-88
2023/03/23 03:35:22;;;;;;;55.53;29.77;;;;;;;;;;4420239;32;319369;-88
2023/03/23 03:37:51;;;;;;;50.77;28.70;;;;;;;;;;4411545;32;319429;-89
2023/03/23 03:40:20;;;;;;;44.37;26.70;;;;;;;;;;4421555;32;319424;-87
2023/03/23 03:42:47;;;;;;;61.63;35.60;;;;;;;;;;4419526;32;319326;-87
2023/03/23 03:45:15;;;;;;;63.73;35.87;;;;;;;;;;4408421;32;418264;-88
2023/03/23 03:47:43;;;;;;;62.43;30.60;;;;;;;;;;4420498;32;319342;-87
2023/03/23 03:50:10;;;;;;;59.77;34.97;;;;;;;;;;4411770;32;319252;-87
2023/03/23 03:52:38;;;;;;;58.17;35.33;;;;;;;;;;4419657;32;318439;-88
2023/03/23 03:55:07;;;;;;;50.13;31.97;;;;;;;;;;4411107;32;319058;-88
2023/03/23 03:57:34;;;;;;;38.10;26.07;;;;;;;;;;4421137;32;319345;-87
2023/03/23 04:00:12;;;;;;;41.73;22.70;;;;;;;;;;4411096;32;319358;-88
2023/03/23 04:02:40;;;;;;;40.40;24.63;;;;;;;;;;4407898;32;319131;-88
2023/03/23 04:05:08;;;;;;;49.40;29.37;;;;;;;;;;4404162;32;318775;-87
2023/03/23 04:07:37;;;;;;;63.10;35.37;;;;;;;;;;4421357;32;319509;-88
2023/03/23 04:10:10;;;;;;;62.87;35.03;;;;;;;;;;4411362;32;319083;-87
2023/03/23 04:12:38;;;;;;;95.23;42.03;;;;;;;;;;4420461;32;319657;-88
2023/03/23 04:15:05;;;;;;;94.53;42.20;;;;;;;;;;4411424;32;319264;-87
2023/03/23 04:17:35;;;;;;;89.87;37.97;;;;;;;;;;4421334;32;319255;-88
2023/03/23 04:20:06;;;;;;;80.17;39.33;;;;;;;;;;4409545;32;319454;-88
2023/03/23 04:22:32;;;;;;;81.37;37.47;;;;;;;;;;4421503;32;319434;-87
2023/03/23 04:25:03;;;;;;;84.10;37.33;;;;;;;;;;4411666;32;319683;-87
2023/03/23 04:27:32;;;;;;;83.80;38.20;;;;;;;;;;4421457;32;319567;-88
2023/03/23 04:29:59;;;;;;;72.83;35.13;;;;;;;;;;4411110;32;319307;-87
2023/03/23 04:32:30;;;;;;;81.40;35.30;;;;;;;;;;4419956;32;319249;-87
2023/03/23 04:34:57;;;;;;;129.23;44.17;;;;;;;;;;4409527;32;327149;-90
2023/03/23 04:37:28;;;;;;;249.80;64.27;;;;;;;;;;4419383;32;319694;-88
2023/03/23 04:40:00;;;;;;;187.07;62.70;;;;;;;;;;4409753;32;320471;-88
2023/03/23 04:42:27;;;;;;;170.07;55.00;;;;;;;;;;4420720;32;320372;-88
2023/03/23 04:44:56;;;;;;;118.20;45.83;;;;;;;;;;4409359;32;319983;-87
2023/03/23 04:47:22;;;;;;;105.90;44.13;;;;;;;;;;4419667;32;319670;-87
2023/03/23 04:49:50;;;;;;;120.17;48.73;;;;;;;;;;4409819;32;320345;-87
2023/03/23 04:52:17;;;;;;;126.67;54.17;;;;;;;;;;4418905;32;320439;-87
2023/03/23 04:54:44;;;;;;;118.40;52.73;;;;;;;;;;4418814;32;320475;-87
2023/03/23 04:57:12;;;;;;;119.17;51.77;;;;;;;;;;4409709;32;320397;-87
2023/03/23 04:59:39;;;;;;;111.37;44.67;;;;;;;;;;4420019;32;319495;-87
2023/03/23 05:02:07;;;;;;;91.77;39.03;;;;;;;;;;4409558;32;320365;-87
2023/03/23 05:04:37;;;;;;;82.23;39.73;;;;;;;;;;4420360;32;319301;-87
2023/03/23 05:07:04;;;;;;;100.10;40.57;;;;;;;;;;4409633;32;319401;-87
2023/03/23 05:09:30;;;;;;;152.30;55.87;;;;;;;;;;4419988;32;319609;-87
2023/03/23 05:11:59;;;;;;;129.80;51.97;;;;;;;;;;4409742;32;320321;-87
2023/03/23 05:14:26;;;;;;;125.00;53.30;;;;;;;;;;4418667;32;319618;-87
2023/03/23 05:16:53;;;;;;;112.50;45.83;;;;;;;;;;4409037;32;320359;-87
2023/03/23 05:19:22;;;;;;;118.20;39.17;;;;;;;;;;4420099;32;320248;-87
2023/03/23 05:21:48;;;;;;;87.53;39.07;;;;;;;;;;4410004;32;320336;-87
2023/03/23 05:24:15;;;;;;;100.40;44.30;;;;;;;;;;4420085;32;319416;-87
2023/03/23 05:26:42;;;;;;;128.10;47.93;;;;;;;;;;4418786;32;319437;-87
2023/03/23 05:29:10;;;;;;;122.33;45.43;;;;;;;;;;4409707;32;323603;-88
2023/03/23 05:31:37;;;;;;;99.83;40.57;;;;;;;;;;4417350;32;318998;-87
2023/03/23 05:34:04;;;;;;;100.63;37.63;;;;;;;;;;4408876;32;318420;-87
2023/03/23 05:36:32;;;;;;;117.23;33.53;;;;;;;;;;4417919;32;358090;-87
2023/03/23 05:38:59;;;;;;;76.20;31.00;;;;;;;;;;4407750;32;338392;-87
2023/03/23 05:41:26;;;;;;;111.43;36.87;;;;;;;;;;4419135;32;318303;-87
2023/03/23 05:43:53;;;;;;;80.33;39.27;;;;;;;;;;4408860;32;318546;-87
2023/03/23 05:46:20;;;;;;;82.73;36.40;;;;;;;;;;4417747;32;349761;-87
2023/03/23 05:48:47;;;;;;;133.27;39.37;;;;;;;;;;4419112;32;318306;-87
2023/03/23 05:51:14;;;;;;;86.43;37.60;;;;;;;;;;4407087;32;346667;-88
2023/03/23 05:53:42;;;;;;;104.73;40.93;;;;;;;;;;4419471;32;317518;-88
2023/03/23 05:56:09;;;;;;;110.57;37.97;;;;;;;;;;4408353;32;326861;-87
2023/03/23 05:58:36;;;;;;;85.33;39.83;;;;;;;;;;4418944;32;319028;-87
2023/03/23 06:01:07;;;;;;;76.10;36.50;;;;;;;;;;4409265;32;319361;-87
2023/03/23 06:03:35;;;;;;;77.87;38.73;;;;;;;;;;4418604;32;318710;-87
2023/03/23 06:06:03;;;;;;;117.83;51.60;;;;;;;;;;4407448;32;318216;-89
2023/03/23 06:08:30;;;;;;;480.10;268.17;;;;;;;;;;4418341;32;318629;-88
2023/03/23 06:10:58;;;;;;;168.47;79.60;;;;;;;;;;4408586;32;319589;-87
2023/03/23 06:13:25;;;;;;;184.93;83.13;;;;;;;;;;4417258;32;352634;-87
2023/03/23 06:15:57;;;;;;;117.10;53.53;;;;;;;;;;4407913;32;319312;-87
2023/03/23 06:18:24;;;;;;;120.27;61.60;;;;;;;;;;4418021;32;318688;-87
2023/03/23 06:20:50;;;;;;;106.70;52.23;;;;;;;;;;4409169;32;319266;-87
2023/03/23 06:23:18;;;;;;;116.10;57.50;;;;;;;;;;4417573;32;318483;-87
2023/03/23 06:25:45;;;;;;;94.47;50.33;;;;;;;;;;4418559;32;319180;-87
2023/03/23 06:28:15;;;;;;;86.77;45.00;;;;;;;;;;4407168;32;318801;-87
2023/03/23 06:30:42;;;;;;;100.13;45.27;;;;;;;;;;4418578;32;317677;-87
2023/03/23 06:33:09;;;;;;;99.00;47.10;;;;;;;;;;4407861;32;320456;-87
2023/03/23 06:35:36;;;;;;;100.13;47.30;;;;;;;;;;4419035;32;318498;-88
2023/03/23 06:38:04;;;;;;;87.63;44.90;;;;;;;;;;4411003;32;319621;-88
2023/03/23 06:40:31;;;;;;;76.50;42.63;;;;;;;;;;4422595;32;319144;-87
2023/03/23 06:42:59;;;;;;;86.03;46.17;;;;;;;;;;4411650;32;318969;-88
2023/03/23 06:45:27;;;;;;;88.33;44.00;;;;;;;;;;4422573;32;318445;-88
2023/03/23 06:47:54;;;;;;;94.00;47.90;;;;;;;;;;4411617;32;318693;-88
2023/03/23 06:50:20;;;;;;;80.53;45.20;;;;;;;;;;4422109;32;318392;-89
2023/03/23 06:52:47;;;;;;;73.60;42.03;;;;;;;;;;4420932;32;319287;-89
2023/03/23 06:55:14;;;;;;;63.60;38.07;;;;;;;;;;4407731;32;418322;-88
2023/03/23 06:57:42;;;;;;;69.10;37.40;;;;;;;;;;4420229;32;319217;-89
2023/03/23 07:00:11;;;;;;;59.83;37.00;;;;;;;;;;4411507;32;319489;-89
2023/03/23 07:02:40;;;;;;;62.13;37.93;;;;;;;;;;4419873;32;318634;-87
2023/03/23 07:05:08;;;;;;;59.07;35.30;;;;;;;;;;4411671;32;319131;-88
2023/03/23 07:07:35;;;;;;;48.77;33.03;;;;;;;;;;4420703;32;319564;-89
2023/03/23 07:10:02;;;;;;;53.40;28.83;;;;;;;;;;4410786;32;319291;-87
2023/03/23 07:12:29;;;;;;;52.13;31.77;;;;;;;;;;4420853;32;318604;-87
2023/03/23 07:14:56;;;;;;;48.83;29.60;;;;;;;;;;4411127;32;318550;-90
2023/03/23 07:17:22;;;;;;;60.60;37.53;;;;;;;;;;4420602;32;319169;-89
2023/03/23 07:19:51;;;;;;;46.80;31.80;;;;;;;;;;4410415;32;319288;-85
2023/03/23 07:22:18;;;;;;;45.00;30.57;;;;;;;;;;4421777;32;319199;-87
2023/03/23 07:24:45;;;;;;;48.33;27.70;;;;;;;;;;4420927;32;319178;-90
2023/03/23 07:27:11;;;;;;;42.20;26.47;;;;;;;;;;4410463;32;319595;-88
2023/03/23 07:29:38;;;;;;;40.57;29.03;;;;;;;;;;4419908;32;319123;-88
2023/03/23 07:32:06;;;;;;;44.40;26.33;;;;;;;;;;4411643;32;337100;-87
2023/03/23 07:34:33;;;;;;;38.03;25.67;;;;;;;;;;4422372;32;319221;-87
2023/03/23 07:37:01;;;;;;;34.23;23.17;;;;;;;;;;4411141;32;319762;-88
2023/03/23 07:39:28;;;;;;;36.03;23.27;;;;;;;;;;4421396;32;318654;-88
2023/03/23 07:41:55;;;;;;;34.20;23.87;;;;;;;;;;4410159;32;319472;-89
2023/03/23 07:44:22;;;;;;;40.23;20.40;;;;;;;;;;4420810;32;321105;-89
2023/03/23 07:46:50;;;;;;;38.10;22.63;;;;;;;;;;4409430;32;319393;-85
2023/03/23 07:49:18;;;;;;;35.50;21.73;;;;;;;;;;4419731;32;319152;-89
2023/03/23 07:51:45;;;;;;;29.93;21.77;;;;;;;;;;4420760;32;319272;-86
2023/03/23 07:54:14;;;;;;;36.23;23.03;;;;;;;;;;4410667;32;318840;-88
2023/03/23 07:56:41;;;;;;;44.63;24.30;;;;;;;;;;4406428;32;319378;-90
2023/03/23 07:59:09;;;;;;;40.58;25.58;;;;;;;;;;4401953;32;355088;-90
2023/03/23 08:01:36;;;;;;;38.27;23.73;;;;;;;;;;4420843;32;325222;-88
2023/03/23 08:04:03;;;;;;;36.97;24.40;;;;;;;;;;4410633;32;319527;-86
2023/03/23 08:06:34;;;;;;;47.70;27.47;;;;;;;;;;4419663;32;319203;-87
2023/03/23 08:09:06;;;;;;;38.77;27.17;;;;;;;;;;4410329;32;319169;-84
2023/03/23 08:11:39;;;;;;;39.43;24.80;;;;;;;;;;4418693;32;319203;-86
2023/03/23 08:14:06;;;;;;;66.57;38.93;;;;;;;;;;4410334;32;318688;-87
2023/03/23 08:16:33;;;;;;;58.57;38.03;;;;;;;;;;4420002;32;319656;-84
2023/03/23 08:19:00;;;;;;;37.50;27.17;;;;;;;;;;4408286;32;358026;-86
2023/03/23 08:21:27;;;;;;;56.27;28.83;;;;;;;;;;4419996;32;319363;-85
2023/03/23 08:23:54;;;;;;;48.17;27.27;;;;;;;;;;4410573;32;319189;-85
2023/03/23 08:26:22;;;;;;;47.93;24.90;;;;;;;;;;4418353;32;330649;-85
2023/03/23 08:28:50;;;;;;;79.93;46.10;;;;;;;;;;4410731;32;319480;-82
2023/03/23 08:31:18;;;;;;;48.30;27.37;;;;;;;;;;4419791;32;319486;-87
2023/03/23 08:33:45;;;;;;;46.83;28.60;;;;;;;;;;4419581;32;318783;-85
2023/03/23 08:36:12;;;;;;;45.57;32.97;;;;;;;;;;4410120;32;319790;-88
2023/03/23 08:38:39;;;;;;;46.03;27.90;;;;;;;;;;4420032;32;319808;-85
2023/03/23 08:41:07;;;;;;;43.10;26.00;;;;;;;;;;4409869;32;319591;-85
2023/03/23 08:43:34;;;;;;;48.73;29.53;;;;;;;;;;4419986;32;319156;-85
2023/03/23 08:46:08;;;;;;;56.00;30.07;;;;;;;;;;4408044;32;339184;-85
2023/03/23 08:48:36;;;;;;;52.40;31.50;;;;;;;;;;4419053;32;318972;-86
2023/03/23 08:51:03;;;;;;;46.33;28.37;;;;;;;;;;4409942;32;319298;-87
2023/03/23 08:53:31;;;;;;;43.30;30.40;;;;;;;;;;4419418;32;319617;-83
2023/03/23 08:56:03;;;;;;;55.67;29.97;;;;;;;;;;4409727;32;319264;-84
2023/03/23 08:58:30;;;;;;;35.07;26.33;;;;;;;;;;4418376;32;319453;-85
2023/03/23 09:00:56;;;;;;;43.00;27.00;;;;;;;;;;4407955;32;319541;-85
2023/03/23 09:03:25;;;;;;;35.43;24.93;;;;;;;;;;4418475;32;318700;-85
2023/03/23 09:05:53;;;;;;;31.03;21.03;;;;;;;;;;4407895;32;319398;-85
2023/03/23 09:08:20;;;;;;;38.07;21.33;;;;;;;;;;4417682;32;319257;-85
2023/03/23 09:10:49;;;;;;;20.17;15.10;;;;;;;;;;4419275;32;319380;-85
2023/03/23 09:13:15;;;;;;;13.60;10.53;;;;;;;;;;4404636;32;418076;-86
2023/03/23 09:15:42;;;;;;;12.60;10.20;;;;;;;;;;4420363;32;318856;-88
2023/03/23 09:18:09;;;;;;;19.43;12.20;;;;;;;;;;4410708;32;318655;-88
2023/03/23 09:20:38;;;;;;;13.73;10.10;;;;;;;;;;4419469;32;319189;-86
2023/03/23 09:23:05;;;;;;;12.73;9.53;;;;;;;;;;4408606;32;319150;-88
2023/03/23 09:25:32;;;;;;;10.13;8.00;;;;;;;;;;4419446;32;317464;-88
2023/03/23 09:28:00;;;;;;;8.77;6.63;;;;;;;;;;4409647;32;318249;-88
2023/03/23 09:30:28;;;;;;;10.67;7.00;;;;;;;;;;4417973;32;316451;-89
2023/03/23 09:32:55;;;;;;;7.43;6.10;;;;;;;;;;4409452;32;318346;-88
2023/03/23 09:35:23;;;;;;;12.33;8.43;;;;;;;;;;4419879;32;317083;-89
2023/03/23 09:37:53;;;;;;;8.23;6.70;;;;;;;;;;4409367;32;318398;-87
2023/03/23 09:40:22;;;;;;;7.63;5.93;;;;;;;;;;4419452;32;317088;-89
2023/03/23 09:43:04;;;;;;;7.53;5.70;;;;;;;;;;4409388;32;317187;-87
2023/03/23 09:45:37;;;;;;;13.13;6.83;;;;;;;;;;4419986;32;316441;-89
2023/03/23 09:48:28;;;;;;;8.37;6.00;;;;;;;;;;4409658;32;318463;-87
2023/03/23 09:51:02;;;;;;;7.33;6.57;;;;;;;;;;4409003;32;317348;-89
2023/03/23 09:53:36;;;;;;;9.80;6.60;;;;;;;;;;4419968;32;317752;-88
2023/03/23 09:56:07;;;;;;;8.97;6.20;;;;;;;;;;4409512;32;316500;-88
2023/03/23 09:58:40;;;;;;;10.87;6.33;;;;;;;;;;4419849;32;317725;-88
2023/03/23 10:01:15;;;;;;;6.00;5.40;;;;;;;;;;4409115;32;318129;-87
2023/03/23 10:03:44;;;;;;;12.37;6.40;;;;;;;;;;4419366;32;316547;-87
2023/03/23 10:06:13;;;;;;;6.73;5.77;;;;;;;;;;4409180;32;318345;-87
2023/03/23 10:08:46;;;;;;;6.47;5.07;;;;;;;;;;4419060;32;317089;-88
2023/03/23 10:11:21;;;;;;;5.70;5.10;;;;;;;;;;4410198;32;317104;-87
2023/03/23 10:14:04;;;;;;;6.67;4.77;;;;;;;;;;4420477;32;317064;-88
2023/03/23 10:16:35;;;;;;;6.30;4.70;;;;;;;;;;4408497;32;417092;-88
2023/03/23 10:19:10;;;;;;;9.47;5.03;;;;;;;;;;4410390;32;316494;-89
2023/03/23 10:21:41;;;;;;;6.73;4.67;;;;;;;;;;4418744;32;316643;-87
2023/03/23 10:24:11;;;;;;;5.20;4.70;;;;;;;;;;4408675;32;317141;-88
2023/03/23 10:26:48;;;;;;;8.53;4.80;;;;;;;;;;4420914;32;317827;-87
2023/03/23 10:29:19;;;;;;;5.43;4.90;;;;;;;;;;4406513;32;415901;-87
2023/03/23 10:31:51;;;;;;;5.93;3.90;;;;;;;;;;4420336;32;317135;-88
2023/03/23 10:34:22;;;;;;;7.93;3.93;;;;;;;;;;4406981;32;415977;-88
2023/03/23 10:37:00;;;;;;;5.80;5.07;;;;;;;;;;4406738;32;317560;-88
2023/03/23 10:39:32;;;;;;;6.80;4.47;;;;;;;;;;4419681;32;317684;-88
2023/03/23 10:42:06;;;;;;;4.62;4.18;;;;;;;;;;4409230;32;317126;-88
2023/03/23 10:44:34;;;;;;;4.57;3.90;;;;;;;;;;4418714;32;316422;-90
2023/03/23 10:47:04;;;;;;;5.57;4.43;;;;;;;;;;4409430;32;316973;-88
2023/03/23 10:49:35;;;;;;;6.05;4.62;;;;;;;;;;4418414;32;317128;-88
2023/03/23 10:52:10;;;;;;;9.15;4.87;;;;;;;;;;4407591;32;317670;-88
2023/03/23 10:54:47;;;;;;;5.10;4.10;;;;;;;;;;4417811;32;352285;-89
2023/03/23 10:57:23;;;;;;;5.95;4.30;;;;;;;;;;4408732;32;416217;-88
2023/03/23 10:59:51;;;;;;;13.07;8.43;;;;;;;;;;4408076;32;337566;-90
2023/03/23 11:02:22;;;;;;;8.10;6.72;;;;;;;;;;4421664;32;317394;-90
2023/03/23 11:04:59;;;;;;;5.50;4.32;;;;;;;;;;4412426;32;316693;-88
2023/03/23 11:07:29;;;;;;;13.57;8.07;;;;;;;;;;4417903;32;349332;-88
2023/03/23 11:10:08;;;;;;;9.45;6.37;;;;;;;;;;4408867;32;318667;-90
2023/03/23 11:12:35;;;;;;;7.47;4.82;;;;;;;;;;4420368;32;316447;-89
2023/03/23 11:15:23;;;;;;;10.18;8.40;;;;;;;;;;4409665;32;317043;-90
2023/03/23 11:17:56;;;;;;;6.03;5.03;;;;;;;;;;4414574;32;318040;-90
2023/03/23 11:20:24;;;;;;;11.00;4.65;;;;;;;;;;4419483;32;317227;-88
2023/03/23 11:22:51;;;;;;;19.37;5.28;;;;;;;;;;4410200;32;318615;-89
2023/03/23 11:25:19;;;;;;;4.68;3.90;;;;;;;;;;4421247;32;344893;-90
2023/03/23 11:27:46;;;;;;;6.30;3.47;;;;;;;;;;4421086;32;316488;-90
2023/03/23 11:30:23;;;;;;;5.15;3.92;;;;;;;;;;4412453;32;317034;-89
2023/03/23 11:32:52;;;;;;;7.97;4.75;;;;;;;;;;4412377;32;317011;-89
2023/03/23 11:35:22;;;;;;;7.10;5.15;;;;;;;;;;4421240;32;316539;-88
2023/03/23 11:37:54;;;;;;;6.05;4.70;;;;;;;;;;4420979;32;317843;-89
2023/03/23 11:40:24;;;;;;;5.80;4.25;;;;;;;;;;4407798;32;416183;-88
2023/03/23 11:42:59;;;;;;;5.82;3.80;;;;;;;;;;4411954;32;317427;-87
2023/03/23 11:45:33;;;;;;;14.30;4.80;;;;;;;;;;4421211;32;317248;-89
2023/03/23 11:48:11;;;;;;;5.53;4.12;;;;;;;;;;4411172;32;318137;-89
2023/03/23 11:50:48;;;;;;;5.07;3.50;;;;;;;;;;4421720;32;315934;-88
2023/03/23 11:53:25;;;;;;;7.55;3.90;;;;;;;;;;4407845;32;419334;-91
2023/03/23 11:56:01;;;;;;;6.97;3.85;;;;;;;;;;4409396;32;386964;-91
2023/03/23 11:58:32;;;;;;;8.35;4.40;;;;;;;;;;4418530;32;316489;-89
2023/03/23 12:01:04;;;;;;;4.53;3.62;;;;;;;;;;4411741;32;317651;-91
2023/03/23 12:03:57;;;;;;;4.28;3.67;;;;;;;;;;4420817;32;316414;-88
2023/03/23 12:06:35;;;;;;;4.75;3.65;;;;;;;;;;4407844;32;417446;-90
2023/03/23 12:09:15;;;;;;;3.45;3.15;;;;;;;;;;4410712;32;317324;-90
2023/03/23 12:11:52;;;;;;;3.87;3.33;;;;;;;;;;4419293;32;317152;-87
2023/03/23 12:14:27;;;;;;;4.47;3.28;;;;;;;;;;4407569;32;417021;-89
2023/03/23 12:17:11;;;;;;;3.28;2.80;;;;;;;;;;4410705;32;317493;-87
2023/03/23 12:19:46;;;;;;;4.05;2.85;;;;;;;;;;4421034;32;317522;-90
2023/03/23 12:22:29;;;;;;;4.78;3.78;;;;;;;;;;4410912;32;317229;-89
2023/03/23 12:25:10;;;;;;;9.32;3.53;;;;;;;;;;4412191;32;317268;-90
2023/03/23 12:27:46;;;;;;;11.35;3.72;;;;;;;;;;4420879;32;317347;-90
2023/03/23 12:30:25;;;;;;;4.95;3.83;;;;;;;;;;4411333;32;318094;-90
2023/03/23 12:33:05;;;;;;;5.07;3.40;;;;;;;;;;4408909;32;316609;-89
2023/03/23 12:35:44;;;;;;;4.40;3.42;;;;;;;;;;4419929;32;317172;-90
2023/03/23 12:38:27;;;;;;;4.72;3.30;;;;;;;;;;4412940;32;317066;-90
2023/03/23 12:41:13;;;;;;;4.57;3.10;;;;;;;;;;4413279;32;317377;-90
2023/03/23 12:43:51;;;;;;;3.45;3.08;;;;;;;;;;4419865;32;317341;-90
2023/03/23 12:46:38;;;;;;;6.28;4.18;;;;;;;;;;4405411;32;419778;-88
2023/03/23 12:49:12;;;;;;;4.62;3.22;;;;;;;;;;4411206;32;317267;-88
2023/03/23 12:51:44;;;;;;;5.18;3.87;;;;;;;;;;4421004;32;317897;-90
2023/03/23 12:54:17;;;;;;;4.78;3.55;;;;;;;;;;4408150;32;317446;-89
2023/03/23 12:56:51;;;;;;;3.55;2.75;;;;;;;;;;4419745;32;316724;-90
2023/03/23 12:59:26;;;;;;;6.62;3.20;;;;;;;;;;4406345;32;417366;-90
2023/03/23 13:01:57;;;;;;;5.78;3.83;;;;;;;;;;4410183;32;316372;-89
2023/03/23 13:04:29;;;;;;;6.70;4.32;;;;;;;;;;4420491;32;316871;-88
2023/03/23 13:06:56;;;;;;;5.75;3.80;;;;;;;;;;4410331;32;317299;-88
2023/03/23 13:09:29;;;;;;;3.92;3.28;;;;;;;;;;4419736;32;317163;-88
2023/03/23 13:11:58;;;;;;;3.42;2.85;;;;;;;;;;4410225;32;317104;-88
2023/03/23 13:14:35;;;;;;;4.07;2.75;;;;;;;;;;4420382;32;316681;-90
2023/03/23 13:17:12;;;;;;;2.70;2.47;;;;;;;;;;4409463;32;350720;-88
2023/03/23 13:20:00;;;;;;;3.62;2.70;;;;;;;;;;4419078;32;317121;-88
2023/03/23 13:22:33;;;;;;;6.53;3.28;;;;;;;;;;4406803;32;417629;-89
2023/03/23 13:25:09;;;;;;;6.15;3.65;;;;;;;;;;4402318;32;317149;-89
2023/03/23 13:27:36;;;;;;;4.78;3.22;;;;;;;;;;4423837;32;316507;-87
2023/03/23 13:30:22;;;;;;;5.57;3.90;;;;;;;;;;4410974;32;316989;-89
2023/03/23 13:32:49;;;;;;;4.53;3.30;;;;;;;;;;4410432;32;317308;-85
2023/03/23 13:35:20;;;;;;;3.85;2.85;;;;;;;;;;4420382;32;316494;-89
2023/03/23 13:37:50;;;;;;;5.43;3.20;;;;;;;;;;4420030;32;316398;-88
2023/03/23 13:40:25;;;;;;;6.28;3.17;;;;;;;;;;4405475;32;416042;-87
2023/03/23 13:42:54;;;;;;;3.55;3.25;;;;;;;;;;4412211;32;316930;-88
2023/03/23 13:45:25;;;;;;;4.75;3.03;;;;;;;;;;4418869;32;327335;-89
2023/03/23 13:48:07;;;;;;;8.48;5.57;;;;;;;;;;4409239;32;317709;-88
2023/03/23 13:50:45;;;;;;;11.60;3.33;;;;;;;;;;4418870;32;346492;-88
2023/03/23 13:53:22;;;;;;;6.95;3.83;;;;;;;;;;4409986;32;318496;-90
2023/03/23 13:55:51;;;;;;;4.60;3.08;;;;;;;;;;4408702;32;317197;-88
2023/03/23 13:58:26;;;;;;;4.43;3.33;;;;;;;;;;4417878;32;316375;-88
2023/03/23 14:01:16;;;;;;;4.35;3.42;;;;;;;;;;4409300;32;317353;-88
2023/03/23 14:03:44;;;;;;;6.00;3.17;;;;;;;;;;4418672;32;316909;-88
2023/03/23 14:06:15;;;;;;;6.37;2.92;;;;;;;;;;4407639;32;317301;-89
2023/03/23 14:08:45;;;;;;;3.72;2.87;;;;;;;;;;4419556;32;316565;-89
2023/03/23 14:11:15;;;;;;;3.42;3.10;;;;;;;;;;4409593;32;317122;-89
2023/03/23 14:13:46;;;;;;;6.40;4.05;;;;;;;;;;4419380;32;316678;-89
2023/03/23 14:16:20;;;;;;;4.20;3.67;;;;;;;;;;4409495;32;317080;-88
2023/03/23 14:18:53;;;;;;;8.40;3.80;;;;;;;;;;4418392;32;317239;-88
2023/03/23 14:21:26;;;;;;;6.82;3.58;;;;;;;;;;4406617;32;414999;-88
2023/03/23 14:23:54;;;;;;;8.88;4.12;;;;;;;;;;4405671;32;319998;-88
2023/03/23 14:26:22;;;;;;;5.90;3.35;;;;;;;;;;4419630;32;317236;-88
2023/03/23 14:28:52;;;;;;;6.85;3.55;;;;;;;;;;4419366;32;317128;-88
2023/03/23 14:31:23;;;;;;;8.70;3.85;;;;;;;;;;4405613;32;417022;-88